createdAt,value
2018-06-21T00:01:24.697Z,88.80
2018-06-21T00:03:52.909Z,88.70
2018-06-21T00:06:23.530Z,88.70
2018-06-21T00:08:51.902Z,88.70
2018-06-21T00:11:22.142Z,88.70
2018-06-21T00:13:50.350Z,88.60
2018-06-21T00:16:18.666Z,88.60
2018-06-21T00:18:46.967Z,88.50
2018-06-21T00:21:15.182Z,88.50
2018-06-21T00:23:43.413Z,88.40
2018-06-21T00:26:11.698Z,89.10
2018-06-21T00:28:39.916Z,88.30
2018-06-21T00:31:08.390Z,88.30
2018-06-21T00:33:37.038Z,88.20
2018-06-21T00:36:05.324Z,88.20
2018-06-21T00:38:33.552Z,88.10
2018-06-21T00:41:02.078Z,88.10
2018-06-21T00:43:30.293Z,88.10
2018-06-21T00:45:58.576Z,88.70
2018-06-21T00:48:26.827Z,88.00
2018-06-21T00:50:55.118Z,87.90
2018-06-21T00:53:23.345Z,88.00
2018-06-21T00:56:04.329Z,87.90
2018-06-21T00:58:32.542Z,87.90
2018-06-21T01:01:00.830Z,87.80
2018-06-21T01:03:29.110Z,87.80
2018-06-21T01:05:57.350Z,87.70
2018-06-21T01:08:27.249Z,87.70
2018-06-21T01:10:55.721Z,87.60
2018-06-21T01:13:23.946Z,87.50
2018-06-21T01:15:52.205Z,87.60
2018-06-21T01:18:20.867Z,87.50
2018-06-21T01:20:49.282Z,87.60
2018-06-21T01:23:17.515Z,87.50
2018-06-21T01:25:46.724Z,87.50
2018-06-21T01:28:15.048Z,87.40
2018-06-21T01:30:43.270Z,87.40
2018-06-21T01:33:11.569Z,87.30
2018-06-21T01:35:39.871Z,87.20
2018-06-21T01:38:08.351Z,87.20
2018-06-21T01:40:36.886Z,87.30
2018-06-21T01:43:05.250Z,87.20
2018-06-21T01:45:33.463Z,87.20
2018-06-21T01:48:02.477Z,87.10
2018-06-21T01:50:30.698Z,87.10
2018-06-21T01:52:58.898Z,87.10
2018-06-21T01:55:30.205Z,87.00
2018-06-21T01:57:58.499Z,87.00
2018-06-21T02:00:26.711Z,87.00
2018-06-21T02:02:55.482Z,87.00
2018-06-21T02:05:24.798Z,86.90
2018-06-21T02:07:54.700Z,86.90
2018-06-21T02:10:23.034Z,86.80
2018-06-21T02:12:51.247Z,86.90
2018-06-21T02:15:19.466Z,86.70
2018-06-21T02:17:47.765Z,86.70
2018-06-21T02:20:15.990Z,86.70
2018-06-21T02:22:44.305Z,87.40
2018-06-21T02:25:12.736Z,86.60
2018-06-21T02:27:40.961Z,86.60
2018-06-21T02:30:09.187Z,86.60
2018-06-21T02:32:37.456Z,86.60
2018-06-21T02:35:05.663Z,86.50
2018-06-21T02:37:33.883Z,86.50
2018-06-21T02:40:02.398Z,86.40
2018-06-21T02:42:30.629Z,86.40
2018-06-21T02:44:59.873Z,86.40
2018-06-21T02:47:28.191Z,86.40
2018-06-21T02:49:56.434Z,86.30
2018-06-21T02:52:24.674Z,86.30
2018-06-21T02:54:53.051Z,86.30
2018-06-21T02:57:21.266Z,86.20
2018-06-21T02:59:49.937Z,86.20
2018-06-21T03:02:18.162Z,86.20
2018-06-21T03:04:46.454Z,86.10
2018-06-21T03:07:16.206Z,86.10
2018-06-21T03:09:45.713Z,86.10
2018-06-21T03:12:19.718Z,86.00
2018-06-21T03:14:48.007Z,86.00
2018-06-21T03:17:16.232Z,86.00
2018-06-21T03:19:45.781Z,86.00
2018-06-21T03:22:14.028Z,86.00
2018-06-21T03:24:42.242Z,85.90
2018-06-21T03:27:11.734Z,85.90
2018-06-21T03:29:40.362Z,85.90
2018-06-21T03:32:08.874Z,85.80
2018-06-21T03:34:37.342Z,85.80
2018-06-21T03:37:05.718Z,85.80
2018-06-21T03:42:02.059Z,85.70
2018-06-21T03:44:30.354Z,85.70
2018-06-21T03:46:58.650Z,85.70
2018-06-21T03:49:27.319Z,85.70
2018-06-21T03:51:55.552Z,85.70
2018-06-21T03:54:23.862Z,85.70
2018-06-21T03:56:52.490Z,85.60
2018-06-21T03:59:20.717Z,85.60
2018-06-21T04:01:48.922Z,85.60
2018-06-21T04:04:17.527Z,85.50
2018-06-21T04:06:45.906Z,85.50
2018-06-21T04:09:16.510Z,85.40
2018-06-21T04:11:45.083Z,85.40
2018-06-21T04:14:13.287Z,85.40
2018-06-21T04:16:41.647Z,85.40
2018-06-21T04:19:09.981Z,85.40
2018-06-21T04:21:38.200Z,85.40
2018-06-21T04:24:06.419Z,85.30
2018-06-21T04:26:35.199Z,85.30
2018-06-21T04:29:03.455Z,85.30
2018-06-21T04:31:31.890Z,85.30
2018-06-21T04:34:00.199Z,85.20
2018-06-21T04:36:28.510Z,85.20
2018-06-21T04:38:56.742Z,85.20
2018-06-21T04:41:25.095Z,85.10
2018-06-21T04:43:53.312Z,85.10
2018-06-21T04:46:21.554Z,85.10
2018-06-21T04:48:50.502Z,85.10
2018-06-21T04:51:18.790Z,85.30
2018-06-21T04:53:47.095Z,85.20
2018-06-21T04:56:15.502Z,85.50
2018-06-21T04:58:43.721Z,85.70
2018-06-21T05:01:12.026Z,85.80
2018-06-21T05:03:40.470Z,85.90
2018-06-21T05:06:08.689Z,86.10
2018-06-21T05:08:39.277Z,86.60
2018-06-21T05:11:07.870Z,87.20
2018-06-21T05:13:36.096Z,87.50
2018-06-21T05:16:04.326Z,87.80
2018-06-21T05:18:32.590Z,87.70
2018-06-21T05:21:00.802Z,87.50
2018-06-21T05:23:29.014Z,87.20
2018-06-21T05:25:58.143Z,88.40
2018-06-21T05:28:26.471Z,87.70
2018-06-21T05:30:54.686Z,87.50
2018-06-21T05:33:23.582Z,87.50
2018-06-21T05:35:51.894Z,87.40
2018-06-21T05:38:20.208Z,87.40
2018-06-21T05:40:48.575Z,87.70
2018-06-21T05:43:16.790Z,87.40
2018-06-21T05:45:45.101Z,87.30
2018-06-21T05:48:15.099Z,87.30
2018-06-21T05:50:43.316Z,87.40
2018-06-21T05:53:11.546Z,87.40
2018-06-21T05:55:40.134Z,87.30
2018-06-21T05:58:08.370Z,87.40
2018-06-21T06:00:36.606Z,87.30
2018-06-21T06:03:05.162Z,87.30
2018-06-21T06:05:33.439Z,87.20
2018-06-21T06:08:04.175Z,87.20
2018-06-21T06:10:32.569Z,87.20
2018-06-21T06:13:00.806Z,87.10
2018-06-21T06:15:29.514Z,87.10
2018-06-21T06:17:57.805Z,87.10
2018-06-21T06:20:26.114Z,87.00
2018-06-21T06:22:54.546Z,87.00
2018-06-21T06:25:22.850Z,87.00
2018-06-21T06:27:51.162Z,86.90
2018-06-21T06:30:19.837Z,86.90
2018-06-21T06:37:44.016Z,86.90
2018-06-21T06:40:12.406Z,86.80
2018-06-21T06:42:40.630Z,86.80
2018-06-21T06:45:09.255Z,86.80
2018-06-21T06:47:37.550Z,86.80
2018-06-21T06:50:05.838Z,86.70
2018-06-21T06:55:02.637Z,86.80
2018-06-21T06:57:30.871Z,86.80
2018-06-21T06:59:59.730Z,86.80
2018-06-21T07:02:27.949Z,86.80
2018-06-21T07:04:56.167Z,86.80
2018-06-21T07:07:28.958Z,86.50
2018-06-21T07:09:57.331Z,86.00
2018-06-21T07:12:25.635Z,85.60
2018-06-21T07:14:54.198Z,85.70
2018-06-21T07:17:22.497Z,85.70
2018-06-21T07:19:50.804Z,85.80
2018-06-21T07:22:19.651Z,85.80
2018-06-21T07:24:47.858Z,85.80
2018-06-21T07:29:44.788Z,85.80
2018-06-21T07:32:13.085Z,85.80
2018-06-21T07:34:41.314Z,85.90
2018-06-21T07:37:10.544Z,85.90
2018-06-21T07:39:38.783Z,85.90
2018-06-21T07:42:07.029Z,86.00
2018-06-21T07:44:35.776Z,86.00
2018-06-21T07:47:04.093Z,86.00
2018-06-21T07:49:32.489Z,86.00
2018-06-21T07:52:01.129Z,86.00
2018-06-21T07:54:29.357Z,86.00
2018-06-21T07:56:57.606Z,86.00
2018-06-21T08:02:00.673Z,85.90
2018-06-21T08:04:28.930Z,85.90
2018-06-21T08:06:57.197Z,85.90
2018-06-21T08:09:26.983Z,86.00
2018-06-21T08:14:23.421Z,85.90
2018-06-21T08:16:51.662Z,85.90
2018-06-21T08:19:19.939Z,85.90
2018-06-21T08:21:48.198Z,85.90
2018-06-21T08:24:16.490Z,85.90
2018-06-21T08:26:45.299Z,85.90
2018-06-21T08:29:13.839Z,85.90
2018-06-21T08:31:42.711Z,85.80
2018-06-21T08:34:11.137Z,85.80
2018-06-21T08:36:39.422Z,85.80
2018-06-21T08:39:08.259Z,85.80
2018-06-21T08:41:36.903Z,85.80
2018-06-21T08:44:05.150Z,85.80
2018-06-21T08:46:33.598Z,85.80
2018-06-21T08:49:02.143Z,85.80
2018-06-21T08:51:30.363Z,85.80
2018-06-21T08:53:58.615Z,85.80
2018-06-21T08:56:27.071Z,85.80
2018-06-21T08:58:55.304Z,85.70
2018-06-21T09:01:23.608Z,85.70
2018-06-21T09:03:56.910Z,85.70
2018-06-21T09:06:25.205Z,85.70
2018-06-21T09:08:56.954Z,85.70
2018-06-21T09:11:25.745Z,85.70
2018-06-21T09:13:54.110Z,85.70
2018-06-21T09:16:22.809Z,85.60
2018-06-21T09:18:51.022Z,85.60
2018-06-21T09:21:19.262Z,85.60
2018-06-21T09:23:48.103Z,85.50
2018-06-21T09:26:16.400Z,85.50
2018-06-21T09:28:44.698Z,85.50
2018-06-21T09:31:14.548Z,85.50
2018-06-21T09:33:42.750Z,85.40
2018-06-21T09:36:11.051Z,85.40
2018-06-21T09:38:44.881Z,85.40
2018-06-21T09:43:24.945Z,85.40
2018-06-21T09:45:58.862Z,85.30
2018-06-21T09:48:28.402Z,85.30
2018-06-21T09:50:56.786Z,85.30
2018-06-21T09:53:25.629Z,85.30
2018-06-21T09:55:53.897Z,85.30
2018-06-21T09:58:22.238Z,85.20
2018-06-21T10:00:57.150Z,85.20
2018-06-21T10:03:25.366Z,85.20
2018-06-21T10:05:53.587Z,85.10
2018-06-21T10:08:24.028Z,85.10
2018-06-21T10:10:52.262Z,85.00
2018-06-21T10:13:20.505Z,85.00
2018-06-21T10:15:49.880Z,85.00
2018-06-21T10:18:18.081Z,85.00
2018-06-21T10:20:46.298Z,85.00
2018-06-21T10:23:15.090Z,84.90
2018-06-21T10:25:43.309Z,84.90
2018-06-21T10:28:11.626Z,84.90
2018-06-21T10:30:40.245Z,84.90
2018-06-21T10:33:08.550Z,84.80
2018-06-21T10:35:36.854Z,84.80
2018-06-21T10:38:05.251Z,84.70
2018-06-21T10:40:33.474Z,84.70
2018-06-21T10:43:01.705Z,84.60
2018-06-21T10:45:30.054Z,84.60
2018-06-21T10:47:58.465Z,84.60
2018-06-21T10:50:26.698Z,84.60
2018-06-21T10:52:55.850Z,84.50
2018-06-21T10:55:24.066Z,84.50
2018-06-21T10:57:52.393Z,84.50
2018-06-21T11:00:22.057Z,84.40
2018-06-21T11:02:50.345Z,84.40
2018-06-21T11:05:18.574Z,84.40
2018-06-21T11:10:29.675Z,84.30
2018-06-21T11:12:58.443Z,84.30
2018-06-21T11:15:26.687Z,84.30
2018-06-21T11:17:54.927Z,84.30
2018-06-21T11:20:23.483Z,84.30
2018-06-21T11:22:51.710Z,84.20
2018-06-21T11:25:19.995Z,84.20
2018-06-21T11:27:49.513Z,84.20
2018-06-21T11:30:17.691Z,84.20
2018-06-21T11:32:45.902Z,84.10
2018-06-21T11:35:14.261Z,84.10
2018-06-21T11:37:42.567Z,84.10
2018-06-21T11:40:10.810Z,83.00
2018-06-21T11:42:39.101Z,78.50
2018-06-21T11:45:07.329Z,77.60
2018-06-21T11:47:35.549Z,77.50
2018-06-21T11:50:05.049Z,77.80
2018-06-21T11:52:33.272Z,78.30
2018-06-21T11:55:01.591Z,78.90
2018-06-21T11:57:30.091Z,79.40
2018-06-21T11:59:58.421Z,80.00
2018-06-21T12:02:26.742Z,80.30
2018-06-21T12:04:55.121Z,80.70
2018-06-21T12:07:23.353Z,81.00
2018-06-21T12:09:56.698Z,81.40
2018-06-21T12:12:25.286Z,81.60
2018-06-21T12:14:53.595Z,81.70
2018-06-21T12:17:22.050Z,81.80
2018-06-21T12:19:50.386Z,81.90
2018-06-21T12:22:18.683Z,81.90
2018-06-21T12:24:47.019Z,82.00
2018-06-21T12:27:15.269Z,82.00
2018-06-21T12:29:43.475Z,82.00
2018-06-21T12:32:12.114Z,82.00
2018-06-21T12:34:40.355Z,82.00
2018-06-21T12:37:08.687Z,82.00
2018-06-21T12:39:36.955Z,82.00
2018-06-21T12:42:05.285Z,82.10
2018-06-21T12:44:33.515Z,82.00
2018-06-21T12:47:02.798Z,82.10
2018-06-21T12:49:31.014Z,82.10
2018-06-21T12:51:59.240Z,82.10
2018-06-21T12:54:27.642Z,82.10
2018-06-21T12:56:55.868Z,82.10
2018-06-21T12:59:24.182Z,82.10
2018-06-21T13:01:52.467Z,82.10
2018-06-21T13:04:20.763Z,82.00
2018-06-21T13:06:48.999Z,82.10
2018-06-21T13:09:29.571Z,82.80
2018-06-21T13:13:09.590Z,82.00
2018-06-21T13:15:38.163Z,82.00
2018-06-21T13:18:06.427Z,82.10
2018-06-21T13:20:34.730Z,82.10
2018-06-21T13:23:03.123Z,82.00
2018-06-21T13:25:31.342Z,81.90
2018-06-21T13:27:59.579Z,81.70
2018-06-21T13:30:29.005Z,81.50
2018-06-21T13:32:57.259Z,81.30
2018-06-21T13:35:25.582Z,81.10
2018-06-21T13:37:54.458Z,81.20
2018-06-21T13:40:22.682Z,81.30
2018-06-21T13:42:50.925Z,81.20
2018-06-21T13:45:19.370Z,81.30
2018-06-21T13:47:47.775Z,81.20
2018-06-21T13:50:16.170Z,79.10
2018-06-21T13:52:46.494Z,78.10
2018-06-21T13:55:14.800Z,78.40
2018-06-21T13:57:43.053Z,77.90
2018-06-21T14:00:11.363Z,78.40
2018-06-21T14:02:39.595Z,78.70
2018-06-21T14:05:07.881Z,78.80
2018-06-21T14:07:41.490Z,79.10
2018-06-21T14:10:09.695Z,79.30
2018-06-21T14:12:37.938Z,79.60
2018-06-21T14:15:06.491Z,79.70
2018-06-21T14:17:34.733Z,79.90
2018-06-21T14:20:02.986Z,80.00
2018-06-21T14:22:31.693Z,80.00
2018-06-21T14:24:59.999Z,80.10
2018-06-21T14:27:28.309Z,80.20
2018-06-21T14:29:57.648Z,80.30
2018-06-21T14:32:25.931Z,80.30
2018-06-21T14:34:54.237Z,80.20
2018-06-21T14:37:22.934Z,80.30
2018-06-21T14:39:51.153Z,80.20
2018-06-21T14:42:19.448Z,80.20
2018-06-21T14:44:48.157Z,80.10
2018-06-21T14:47:16.455Z,80.10
2018-06-21T14:49:44.704Z,80.00
2018-06-21T14:52:13.831Z,80.00
2018-06-21T14:54:42.151Z,80.10
2018-06-21T14:57:10.445Z,80.00
2018-06-21T14:59:38.658Z,80.00
2018-06-21T15:02:06.892Z,80.00
2018-06-21T15:04:35.117Z,80.10
2018-06-21T15:07:03.416Z,80.10
2018-06-21T15:09:34.010Z,80.10
2018-06-21T15:12:03.583Z,80.00
2018-06-21T15:14:32.212Z,80.10
2018-06-21T15:17:00.458Z,80.00
2018-06-21T15:19:28.681Z,80.10
2018-06-21T15:21:57.136Z,80.00
2018-06-21T15:24:25.464Z,80.00
2018-06-21T15:26:53.711Z,80.10
2018-06-21T15:29:22.683Z,80.20
2018-06-21T15:31:50.908Z,80.10
2018-06-21T15:34:19.235Z,79.20
2018-06-21T15:36:47.608Z,79.50
2018-06-21T15:39:19.838Z,69.90
2018-06-21T15:41:48.151Z,71.20
2018-06-21T15:44:16.697Z,74.20
2018-06-21T15:46:45.092Z,74.00
2018-06-21T15:49:14.273Z,75.30
2018-06-21T15:51:42.597Z,75.60
2018-06-21T15:54:10.854Z,75.70
2018-06-21T15:56:39.126Z,75.70
2018-06-21T15:59:07.428Z,75.70
2018-06-21T16:01:35.651Z,75.80
2018-06-21T16:04:04.181Z,75.70
2018-06-21T16:06:32.599Z,75.80
2018-06-21T16:09:02.088Z,75.90
2018-06-21T16:11:30.859Z,76.00
2018-06-21T16:13:59.209Z,76.00
2018-06-21T16:16:27.559Z,76.00
2018-06-21T16:18:55.928Z,76.00
2018-06-21T16:21:24.247Z,76.10
2018-06-21T16:23:52.563Z,76.40
2018-06-21T16:26:21.559Z,76.10
2018-06-21T16:28:49.786Z,76.20
2018-06-21T16:31:18.175Z,76.30
2018-06-21T16:33:46.577Z,76.30
2018-06-21T16:36:14.830Z,76.40
2018-06-21T16:38:43.296Z,76.40
2018-06-21T16:41:12.027Z,76.40
2018-06-21T16:43:40.258Z,76.40
2018-06-21T16:46:08.503Z,76.50
2018-06-21T16:48:37.065Z,76.60
2018-06-21T16:51:05.371Z,76.60
2018-06-21T16:53:33.538Z,76.60
2018-06-21T16:56:01.914Z,76.70
2018-06-21T16:58:30.235Z,76.70
2018-06-21T17:00:58.478Z,76.80
2018-06-21T17:03:27.139Z,76.90
2018-06-21T17:05:55.409Z,76.90
2018-06-21T17:08:24.819Z,77.00
2018-06-21T17:10:53.607Z,77.00
2018-06-21T17:13:21.855Z,77.00
2018-06-21T17:15:50.283Z,77.10
2018-06-21T17:18:18.947Z,77.10
2018-06-21T17:20:47.254Z,77.80
2018-06-21T17:23:15.516Z,77.10
2018-06-21T17:25:44.201Z,77.10
2018-06-21T17:28:12.534Z,77.20
2018-06-21T17:30:40.987Z,77.10
2018-06-21T17:33:09.739Z,77.20
2018-06-21T17:35:38.068Z,77.20
2018-06-21T17:38:06.322Z,77.30
2018-06-21T17:40:35.191Z,77.30
2018-06-21T17:43:03.496Z,77.30
2018-06-21T17:45:31.803Z,77.30
2018-06-21T17:48:00.827Z,77.20
2018-06-21T17:50:29.167Z,77.00
2018-06-21T17:52:57.502Z,77.10
2018-06-21T17:55:25.966Z,77.10
2018-06-21T17:57:54.299Z,77.00
2018-06-21T18:00:22.452Z,77.00
2018-06-21T18:02:50.958Z,77.10
2018-06-21T18:05:19.335Z,77.20
2018-06-21T18:07:49.340Z,77.20
2018-06-21T18:10:18.492Z,77.90
2018-06-21T18:12:47.118Z,77.40
2018-06-21T18:15:15.342Z,77.50
2018-06-21T18:17:43.952Z,77.50
2018-06-21T18:20:12.246Z,77.60
2018-06-21T18:22:40.491Z,77.70
2018-06-21T18:25:09.246Z,77.70
2018-06-21T18:27:37.483Z,77.80
2018-06-21T18:30:05.759Z,77.80
2018-06-21T18:32:34.042Z,77.90
2018-06-21T18:37:30.287Z,78.00
2018-06-21T18:42:26.694Z,78.10
2018-06-21T18:44:55.019Z,78.90
2018-06-21T18:47:23.768Z,78.20
2018-06-21T18:49:52.158Z,78.10
2018-06-21T18:52:20.570Z,78.20
2018-06-21T18:54:49.132Z,78.20
2018-06-21T18:57:17.430Z,78.20
2018-06-21T18:59:45.690Z,78.20
2018-06-21T19:02:13.972Z,78.20
2018-06-21T19:04:42.303Z,78.20
2018-06-21T19:07:17.063Z,78.20
2018-06-21T19:09:52.891Z,78.20
2018-06-21T19:12:21.497Z,78.20
2018-06-21T19:14:50.199Z,78.10
2018-06-21T19:17:18.520Z,78.00
2018-06-21T19:19:47.039Z,78.00
2018-06-21T19:22:15.263Z,78.00
2018-06-21T19:24:43.620Z,77.90
2018-06-21T19:27:12.687Z,77.90
2018-06-21T19:29:40.915Z,77.80
2018-06-21T19:32:10.187Z,77.80
2018-06-21T19:34:38.458Z,77.80
2018-06-21T19:37:06.706Z,77.80
2018-06-21T19:39:34.930Z,77.70
2018-06-21T19:42:03.302Z,77.60
2018-06-21T19:44:31.607Z,77.60
2018-06-21T19:46:59.847Z,78.20
2018-06-21T19:49:28.834Z,77.50
2018-06-21T19:51:57.089Z,77.50
2018-06-21T19:54:25.341Z,77.40
2018-06-21T19:56:53.727Z,77.30
2018-06-21T19:59:21.983Z,77.10
2018-06-21T20:01:50.231Z,77.10
2018-06-21T20:04:18.687Z,77.70
2018-06-21T20:06:46.981Z,76.90
2018-06-21T20:09:16.486Z,76.80
2018-06-21T20:11:45.366Z,76.80
2018-06-21T20:14:13.619Z,76.70
2018-06-21T20:16:41.931Z,76.70
2018-06-21T20:19:17.433Z,76.60
2018-06-21T20:21:45.788Z,76.60
2018-06-21T20:24:14.080Z,76.50
2018-06-21T20:26:42.715Z,76.50
2018-06-21T20:29:16.377Z,76.50
2018-06-21T20:31:45.296Z,76.50
2018-06-21T20:34:13.643Z,76.50
2018-06-21T20:36:41.867Z,76.40
2018-06-21T20:39:11.051Z,76.40
2018-06-21T20:41:39.298Z,76.30
2018-06-21T20:44:07.567Z,76.40
2018-06-21T20:46:36.299Z,76.30
2018-06-21T20:49:04.577Z,76.20
2018-06-21T20:51:32.871Z,76.10
2018-06-21T20:54:01.157Z,76.10
2018-06-21T20:56:29.386Z,76.00
2018-06-21T20:58:57.615Z,75.80
2018-06-21T21:01:26.512Z,75.60
2018-06-21T21:03:55.003Z,75.40
2018-06-21T21:06:23.238Z,75.20
2018-06-21T21:08:57.746Z,75.40
2018-06-21T21:11:26.118Z,75.40
2018-06-21T21:13:54.479Z,75.20
2018-06-21T21:16:22.747Z,75.30
2018-06-21T21:18:51.016Z,75.30
2018-06-21T21:21:19.269Z,75.20
2018-06-21T21:23:47.577Z,75.10
2018-06-21T21:26:15.982Z,76.00
2018-06-21T21:28:44.366Z,75.60
2018-06-21T21:31:13.052Z,75.10
2018-06-21T21:33:41.372Z,75.00
2018-06-21T21:36:09.681Z,75.00
2018-06-21T21:38:38.189Z,75.00
2018-06-21T21:41:06.429Z,75.00
2018-06-21T21:43:34.683Z,74.90
2018-06-21T21:46:03.122Z,74.90
2018-06-21T21:48:31.365Z,74.80
2018-06-21T21:50:59.605Z,74.90
2018-06-21T21:53:28.330Z,74.90
2018-06-21T21:55:56.554Z,74.90
2018-06-21T21:58:24.863Z,74.90
2018-06-21T22:00:54.363Z,74.90
2018-06-21T22:03:22.539Z,74.90
2018-06-21T22:05:50.786Z,74.90
2018-06-21T22:08:20.994Z,74.90
2018-06-21T22:10:49.830Z,74.80
2018-06-21T22:13:18.391Z,74.80
2018-06-21T22:15:47.150Z,74.80
2018-06-21T22:18:15.371Z,74.80
2018-06-21T22:20:43.599Z,74.80
2018-06-21T22:23:13.014Z,74.80
2018-06-21T22:25:41.393Z,74.70
2018-06-21T22:28:09.710Z,74.70
2018-06-21T22:30:38.549Z,74.70
2018-06-21T22:33:06.790Z,74.70
2018-06-21T22:35:35.101Z,74.70
2018-06-21T22:38:03.695Z,74.80
2018-06-21T22:40:31.905Z,74.70
2018-06-21T22:43:00.233Z,74.60
2018-06-21T22:45:28.828Z,74.70
2018-06-21T22:47:57.042Z,74.70
2018-06-21T22:50:25.274Z,74.70
2018-06-21T22:52:54.279Z,74.70
2018-06-21T22:55:22.517Z,74.70
2018-06-21T22:57:50.752Z,74.70
2018-06-21T23:00:19.126Z,74.60
2018-06-21T23:02:47.353Z,74.70
2018-06-21T23:05:15.703Z,74.60
2018-06-21T23:07:45.988Z,74.70
2018-06-21T23:10:14.215Z,74.70
2018-06-21T23:12:42.833Z,74.60
2018-06-21T23:15:11.537Z,74.70
2018-06-21T23:17:39.755Z,74.60
2018-06-21T23:20:07.987Z,74.70
2018-06-21T23:22:36.569Z,74.70
2018-06-21T23:25:04.792Z,74.60
2018-06-21T23:27:33.028Z,74.60
2018-06-21T23:30:02.223Z,74.60
2018-06-21T23:32:30.437Z,74.70
2018-06-21T23:34:58.683Z,74.60
2018-06-21T23:37:27.151Z,74.60
2018-06-21T23:39:55.363Z,74.60
2018-06-21T23:42:23.590Z,74.60
2018-06-21T23:44:51.882Z,74.60
2018-06-21T23:47:20.119Z,74.60
2018-06-21T23:49:48.347Z,74.70
2018-06-21T23:52:17.218Z,74.60
2018-06-21T23:54:45.438Z,74.50
2018-06-21T23:57:13.719Z,74.60
2018-06-21T23:59:42.362Z,74.50
